Time;durP1;ratioP1;P1;durP2;ratioP2;P2;SDS_P1;SDS_P2;PMS_P1;PMS_P2;Temp;Humidity;BMP_temperature;BMP_pressure;BME280_temperature;BME280_humidity;BME280_pressure;Samples;Min_cycle;Max_cycle;Signal;HPM_P1;HPM_P2
2023/10/29 00:08:56;;;;;;;12.40;3.75;;;;;;;22.09;100.00;101085.44;21107893;28;20051;-78
2023/10/29 00:19:20;;;;;;;12.90;3.55;;;;;;;21.87;100.00;101088.66;21131210;28;20052;-78
2023/10/29 00:29:42;;;;;;;12.65;3.53;;;;;;;21.86;100.00;101089.56;21127807;28;20039;-78
2023/10/29 00:40:09;;;;;;;16.45;3.53;;;;;;;21.87;100.00;101083.28;21143893;28;20051;-78
2023/10/29 00:50:32;;;;;;;13.50;3.63;;;;;;;21.75;100.00;101080.00;21133630;28;20054;-78
2023/10/29 01:00:56;;;;;;;14.35;3.85;;;;;;;21.73;100.00;101074.66;21132622;28;20044;-78
2023/10/29 01:11:19;;;;;;;12.05;3.28;;;;;;;21.70;100.00;101080.16;21158259;28;20055;-78
2023/10/29 01:21:43;;;;;;;17.15;3.67;;;;;;;21.64;100.00;101088.34;21129047;28;20404;-77
2023/10/29 01:32:06;;;;;;;15.52;3.75;;;;;;;21.35;100.00;101082.78;21127061;28;20142;-77
2023/10/29 01:42:32;;;;;;;14.25;3.22;;;;;;;21.40;100.00;101100.56;21157178;28;20115;-77
2023/10/29 01:52:55;;;;;;;15.70;3.65;;;;;;;21.35;100.00;101099.78;21112311;28;20158;-77
2023/10/29 02:03:19;;;;;;;14.02;3.53;;;;;;;21.26;100.00;101113.44;21139203;28;20055;-78
2023/10/29 02:13:42;;;;;;;11.52;3.40;;;;;;;21.21;100.00;101120.69;21141501;28;20109;-78
2023/10/29 02:24:07;;;;;;;13.73;3.42;;;;;;;21.20;100.00;101113.56;21130257;28;20079;-78
2023/10/29 02:34:30;;;;;;;17.08;4.03;;;;;;;21.14;100.00;101120.84;21139635;28;20051;-78
2023/10/29 02:44:54;;;;;;;14.57;3.45;;;;;;;21.26;100.00;101117.94;21122678;28;20084;-78
2023/10/29 02:55:17;;;;;;;15.35;3.72;;;;;;;21.34;100.00;101122.19;21137999;28;20079;-79
2023/10/29 03:05:41;;;;;;;13.10;3.05;;;;;;;21.32;100.00;101113.31;21132333;28;20051;-77
2023/10/29 03:16:05;;;;;;;11.07;3.08;;;;;;;21.30;100.00;101114.25;21120329;28;20043;-77
2023/10/29 03:26:29;;;;;;;16.70;4.53;;;;;;;21.12;100.00;101112.84;21134838;28;20051;-80
2023/10/29 03:36:52;;;;;;;12.77;3.30;;;;;;;21.04;100.00;101122.84;21118519;28;20097;-79
2023/10/29 03:47:16;;;;;;;15.63;3.20;;;;;;;21.00;100.00;101135.44;21132629;28;20051;-77
2023/10/29 03:57:38;;;;;;;12.50;2.75;;;;;;;21.09;100.00;101132.56;21122589;28;20171;-79
2023/10/29 04:08:02;;;;;;;12.18;2.90;;;;;;;21.20;100.00;101140.41;21115516;28;20372;-77
2023/10/29 04:18:27;;;;;;;11.60;2.80;;;;;;;21.17;100.00;101143.19;21125320;28;20040;-78
2023/10/29 04:28:52;;;;;;;17.10;2.90;;;;;;;21.15;100.00;101141.41;21084755;28;20101;-78
2023/10/29 04:39:15;;;;;;;15.00;3.20;;;;;;;20.99;100.00;101143.56;21135689;28;20039;-77
2023/10/29 04:49:39;;;;;;;14.07;3.28;;;;;;;20.93;100.00;101147.25;21160681;28;20064;-78
2023/10/29 05:00:02;;;;;;;13.93;3.08;;;;;;;20.97;100.00;101158.81;21152246;28;20055;-78
2023/10/29 05:10:28;;;;;;;10.65;2.60;;;;;;;21.03;100.00;101166.72;21133811;28;20049;-80
2023/10/29 05:20:50;;;;;;;11.27;2.45;;;;;;;21.20;100.00;101191.44;21137181;28;20052;-78
2023/10/29 05:31:16;;;;;;;14.00;2.47;;;;;;;21.70;100.00;101202.88;21150288;28;20051;-79
2023/10/29 05:41:38;;;;;;;13.05;2.72;;;;;;;21.99;100.00;101207.63;21130810;28;20067;-81
2023/10/29 05:52:03;;;;;;;14.35;2.83;;;;;;;22.02;100.00;101219.19;21147721;28;20051;-78
2023/10/29 06:02:25;;;;;;;14.43;3.55;;;;;;;22.13;100.00;101226.97;21136566;28;20047;-78
2023/10/29 06:12:50;;;;;;;11.93;3.50;;;;;;;22.59;100.00;101240.13;21145177;28;20134;-78
2023/10/29 06:23:13;;;;;;;10.60;2.85;;;;;;;22.95;100.00;101251.78;21129764;28;20047;-78
2023/10/29 06:33:39;;;;;;;13.02;2.50;;;;;;;23.38;100.00;101246.91;21130321;28;20054;-77
2023/10/29 06:44:02;;;;;;;11.23;3.35;;;;;;;23.71;100.00;101247.75;21129041;28;20422;-77
2023/10/29 06:54:27;;;;;;;15.07;2.70;;;;;;;24.15;100.00;101256.28;21148486;28;20049;-78
2023/10/29 07:04:49;;;;;;;11.85;2.10;;;;;;;24.92;100.00;101245.56;21131080;28;20047;-78
2023/10/29 07:15:13;;;;;;;14.45;1.80;;;;;;;25.93;100.00;101247.16;21105649;28;20127;-76
2023/10/29 07:25:36;;;;;;;12.45;2.28;;;;;;;26.28;100.00;101233.06;21107930;28;20104;-76
2023/10/29 07:36:03;;;;;;;10.40;2.10;;;;;;;26.05;100.00;101223.19;21131549;28;20059;-78
2023/10/29 07:46:25;;;;;;;12.98;2.10;;;;;;;26.76;100.00;101216.56;21116438;28;20052;-76
2023/10/29 07:56:50;;;;;;;13.23;1.80;;;;;;;27.28;100.00;101219.63;21113557;27;20055;-76
2023/10/29 08:07:13;;;;;;;8.60;1.70;;;;;;;27.60;100.00;101210.03;21119479;28;20121;-76
2023/10/29 08:17:37;;;;;;;10.43;1.80;;;;;;;27.42;98.08;101209.03;21121086;28;20503;-75
2023/10/29 08:28:00;;;;;;;15.27;2.03;;;;;;;27.01;96.10;101215.47;21114971;28;20044;-76
2023/10/29 08:38:25;;;;;;;13.18;2.88;;;;;;;26.98;99.45;101220.06;21131414;28;20059;-77
2023/10/29 08:48:47;;;;;;;12.85;2.22;;;;;;;26.67;100.00;101224.19;21107926;28;20563;-76
2023/10/29 08:59:12;;;;;;;13.32;2.10;;;;;;;26.38;100.00;101212.81;21126601;28;20124;-77
2023/10/29 09:09:36;;;;;;;11.25;2.13;;;;;;;26.77;100.00;101206.59;21152464;27;20096;-77
2023/10/29 09:20:00;;;;;;;14.55;2.58;;;;;;;27.29;100.00;101199.72;21162664;27;20578;-75
2023/10/29 09:30:23;;;;;;;11.93;2.05;;;;;;;27.83;100.00;101203.50;21142373;27;20134;-76
2023/10/29 09:40:51;;;;;;;10.50;2.47;;;;;;;27.82;100.00;101199.91;21142177;27;20035;-76
2023/10/29 09:51:13;;;;;;;14.38;2.22;;;;;;;28.77;100.00;101198.69;21123084;27;20036;-78
2023/10/29 10:01:39;;;;;;;11.90;2.05;;;;;;;29.25;100.00;101184.31;21118600;27;20051;-77
2023/10/29 10:12:05;;;;;;;;;;;;;;;29.41;100.00;101181.63;21134736;27;20052;-75
2023/10/29 10:22:36;;;;;;;16.70;2.13;;;;;;;29.62;95.74;101175.84;21131659;27;19934;-76
2023/10/29 10:33:13;;;;;;;14.85;2.45;;;;;;;29.29;93.98;101165.00;21127177;27;20126;-76
2023/10/29 10:43:38;;;;;;;9.90;2.10;;;;;;;29.02;95.56;101161.06;21140450;27;20901;-76
2023/10/29 10:54:03;;;;;;;13.20;2.33;;;;;;;28.97;96.02;101151.41;21119908;27;20054;-76
2023/10/29 11:04:30;;;;;;;10.18;2.00;;;;;;;28.99;97.35;101125.03;21115454;27;20043;-76
2023/10/29 11:15:18;;;;;;;13.45;1.85;;;;;;;29.03;91.29;101121.16;21134629;27;20035;-77
2023/10/29 11:25:44;;;;;;;9.73;1.80;;;;;;;28.91;87.68;101112.72;21117561;27;20054;-76
2023/10/29 11:36:32;;;;;;;13.63;2.15;;;;;;;28.55;88.88;101106.56;21130841;27;20101;-76
2023/10/29 11:47:09;;;;;;;11.80;2.20;;;;;;;28.17;92.60;101111.25;21143654;28;20516;-76
2023/10/29 11:57:32;;;;;;;14.03;2.93;;;;;;;27.70;100.00;101119.94;21115354;28;20048;-77
2023/10/29 12:08:02;;;;;;;12.77;2.60;;;;;;;27.51;100.00;101121.78;21109820;28;20423;-75
2023/10/29 12:18:26;;;;;;;11.55;2.30;;;;;;;27.36;100.00;101122.53;21114379;28;20051;-75
2023/10/29 12:28:51;;;;;;;13.48;2.40;;;;;;;27.19;100.00;101125.16;21147069;28;20574;-75
2023/10/29 12:39:14;;;;;;;15.52;2.60;;;;;;;27.03;100.00;101107.88;21161506;27;20049;-74
2023/10/29 12:49:38;;;;;;;13.50;2.90;;;;;;;26.98;100.00;101118.06;21166062;27;20055;-75
2023/10/29 13:00:01;;;;;;;12.88;2.83;;;;;;;27.02;100.00;101108.81;21161186;28;20073;-76
2023/10/29 13:10:25;;;;;;;21.60;2.95;;;;;;;26.42;100.00;101106.09;21148058;28;20377;-76
2023/10/29 13:20:49;;;;;;;17.42;3.08;;;;;;;26.22;100.00;101103.34;21139676;28;20135;-76
2023/10/29 13:31:13;;;;;;;14.85;2.70;;;;;;;26.07;100.00;101107.59;21122277;28;20101;-76
2023/10/29 13:41:37;;;;;;;11.15;2.50;;;;;;;25.97;100.00;101103.53;21140750;28;20401;-76
2023/10/29 13:52:01;;;;;;;19.75;3.08;;;;;;;25.74;100.00;101098.19;21142387;28;20467;-76
2023/10/29 14:02:24;;;;;;;15.98;3.22;;;;;;;25.45;100.00;101093.09;21142839;28;20468;-75
2023/10/29 14:12:48;;;;;;;18.33;2.90;;;;;;;25.35;100.00;101087.16;21155902;28;20044;-75
2023/10/29 14:23:10;;;;;;;17.50;3.25;;;;;;;25.25;100.00;101105.59;21141012;28;20727;-76
2023/10/29 14:33:35;;;;;;;18.13;3.20;;;;;;;25.25;100.00;101089.38;21157264;27;20048;-76
2023/10/29 14:43:57;;;;;;;16.27;3.25;;;;;;;25.12;100.00;101103.41;21117261;28;20055;-75
2023/10/29 14:54:22;;;;;;;16.70;3.05;;;;;;;24.93;100.00;101098.72;21138257;27;20187;-76
2023/10/29 15:04:44;;;;;;;19.67;2.90;;;;;;;24.74;100.00;101121.06;21127638;27;20148;-75
2023/10/29 15:15:10;;;;;;;16.02;3.70;;;;;;;24.62;100.00;101128.66;21181526;27;20491;-75
2023/10/29 15:25:33;;;;;;;17.05;3.63;;;;;;;24.50;100.00;101145.31;21124978;27;20082;-76
2023/10/29 15:36:04;;;;;;;19.13;4.55;;;;;;;24.48;100.00;101140.91;21145631;27;20082;-76
2023/10/29 15:46:27;;;;;;;14.13;4.15;;;;;;;24.34;100.00;101149.50;21120195;28;20047;-75
2023/10/29 15:56:52;;;;;;;22.90;4.70;;;;;;;24.13;100.00;101150.19;21137501;27;20039;-76
2023/10/29 16:07:14;;;;;;;16.45;4.97;;;;;;;24.00;100.00;101168.63;21154229;27;20039;-74
2023/10/29 16:17:39;;;;;;;23.30;4.60;;;;;;;23.85;100.00;101179.91;21147445;27;20463;-75
2023/10/29 16:28:02;;;;;;;17.45;4.97;;;;;;;23.87;100.00;101185.25;21149232;27;20744;-75
2023/10/29 16:38:27;;;;;;;24.13;8.25;;;;;;;23.75;100.00;101203.59;21151144;27;20498;-76
2023/10/29 16:48:49;;;;;;;20.92;5.38;;;;;;;23.63;100.00;101206.66;21151385;27;20051;-76
2023/10/29 16:59:14;;;;;;;19.42;5.05;;;;;;;23.57;100.00;101222.13;21129864;27;20043;-76
2023/10/29 17:09:37;;;;;;;19.52;4.38;;;;;;;23.43;100.00;101228.78;21162113;27;20050;-77
2023/10/29 17:20:02;;;;;;;16.15;4.07;;;;;;;23.37;100.00;101245.16;21161342;27;20400;-76
2023/10/29 17:30:25;;;;;;;16.45;4.43;;;;;;;23.23;100.00;101247.38;21145851;27;20134;-75
2023/10/29 17:40:49;;;;;;;12.73;3.63;;;;;;;23.01;100.00;101247.09;21187359;27;20051;-76
2023/10/29 17:51:12;;;;;;;14.68;3.67;;;;;;;22.97;100.00;101263.41;21186332;27;20130;-74
2023/10/29 18:01:45;;;;;;;20.60;4.15;;;;;;;22.75;100.00;101270.28;21209158;27;20043;-75
2023/10/29 18:12:08;;;;;;;19.25;4.28;;;;;;;22.58;100.00;101276.94;21157774;27;20044;-76
2023/10/29 18:22:33;;;;;;;17.55;3.85;;;;;;;22.66;100.00;101283.00;21204082;27;20051;-75
2023/10/29 18:32:58;;;;;;;15.45;3.97;;;;;;;22.65;100.00;101280.34;21203990;27;20058;-76
2023/10/29 18:43:21;;;;;;;18.08;4.93;;;;;;;22.54;100.00;101271.69;21196221;27;20055;-76
2023/10/29 18:53:44;;;;;;;20.50;4.38;;;;;;;22.49;100.00;101277.19;21183767;27;20104;-77
2023/10/29 19:04:09;;;;;;;16.17;4.63;;;;;;;22.37;100.00;101298.13;21181514;27;20079;-74
2023/10/29 19:14:33;;;;;;;20.05;5.25;;;;;;;22.23;100.00;101291.28;21161784;27;20097;-75
2023/10/29 19:25:00;;;;;;;17.95;4.60;;;;;;;22.15;100.00;101295.06;21176700;27;20047;-75
2023/10/29 19:35:23;;;;;;;17.90;4.40;;;;;;;22.04;100.00;101310.56;21149524;27;20078;-74
2023/10/29 19:45:54;;;;;;;16.33;4.70;;;;;;;21.96;100.00;101323.31;21166086;27;20066;-75
2023/10/29 19:56:16;;;;;;;23.25;5.13;;;;;;;22.01;100.00;101327.66;21136416;28;20407;-75
2023/10/29 20:06:40;;;;;;;18.95;4.20;;;;;;;22.03;100.00;101325.81;21143017;28;20043;-74
2023/10/29 20:17:03;;;;;;;16.20;5.10;;;;;;;21.94;100.00;101336.75;21145638;28;20075;-75
2023/10/29 20:27:27;;;;;;;13.77;4.10;;;;;;;22.05;100.00;101344.63;21142313;28;20043;-74
2023/10/29 20:37:50;;;;;;;11.45;3.90;;;;;;;22.07;100.00;101332.88;21153518;28;20058;-75
2023/10/29 20:48:13;;;;;;;13.80;3.85;;;;;;;21.97;100.00;101334.03;21111914;28;20121;-75
2023/10/29 20:58:37;;;;;;;17.52;4.35;;;;;;;21.83;100.00;101341.47;21144835;28;20040;-75
2023/10/29 21:09:01;;;;;;;17.58;4.40;;;;;;;21.76;100.00;101337.13;21150093;28;20759;-75
2023/10/29 21:19:23;;;;;;;15.77;4.22;;;;;;;21.59;100.00;101331.25;21151518;28;20054;-75
2023/10/29 21:29:48;;;;;;;17.92;4.60;;;;;;;21.47;100.00;101325.19;21142062;27;20050;-76
2023/10/29 21:40:11;;;;;;;13.88;4.40;;;;;;;21.35;100.00;101317.38;21091631;27;20575;-75
2023/10/29 21:50:39;;;;;;;17.75;4.60;;;;;;;21.17;100.00;101320.41;21168928;27;20051;-75
2023/10/29 22:01:02;;;;;;;18.60;5.20;;;;;;;21.20;100.00;101328.41;21155408;28;20047;-75
2023/10/29 22:11:25;;;;;;;19.08;4.80;;;;;;;21.25;100.00;101326.53;21110904;28;20048;-75
2023/10/29 22:21:48;;;;;;;17.33;5.57;;;;;;;21.17;100.00;101323.09;21141103;28;20039;-75
2023/10/29 22:32:14;;;;;;;15.15;4.78;;;;;;;21.09;100.00;101327.69;21107654;28;20059;-74
2023/10/29 22:42:37;;;;;;;14.73;4.57;;;;;;;21.05;100.00;101336.72;21136233;28;20055;-74
2023/10/29 22:53:01;;;;;;;15.20;4.93;;;;;;;21.02;100.00;101326.94;21156903;27;20414;-75
2023/10/29 23:03:24;;;;;;;14.20;4.65;;;;;;;21.03;100.00;101336.75;21135391;27;20518;-75
2023/10/29 23:13:49;;;;;;;15.40;4.65;;;;;;;20.96;100.00;101336.88;21173496;27;20105;-75
2023/10/29 23:24:11;;;;;;;15.20;4.47;;;;;;;20.97;100.00;101341.34;21147269;28;20126;-75
2023/10/29 23:34:37;;;;;;;14.45;4.15;;;;;;;20.93;100.00;101340.53;21150205;28;20077;-75
2023/10/29 23:44:59;;;;;;;14.77;4.82;;;;;;;20.87;100.00;101329.03;21147849;28;20601;-76
2023/10/29 23:55:23;;;;;;;13.07;4.47;;;;;;;20.95;100.00;101332.44;21148992;28;20066;-76
